Time;durP1;ratioP1;P1;durP2;ratioP2;P2;SDS_P1;SDS_P2;PMS_P1;PMS_P2;Temp;Humidity;BMP_temperature;BMP_pressure;BME280_temperature;BME280_humidity;BME280_pressure;Samples;Min_cycle;Max_cycle;Signal;HPM_P1;HPM_P2
2022/06/30 00:01:23;;;;;;;;;;;;;;;-149.78;100.00;50142.88;5066157;28;19921;-69
2022/06/30 00:03:48;;;;;;;;;;;;;;;-149.78;100.00;50148.75;5065087;28;19920;-69
2022/06/30 00:06:14;;;;;;;;;;;;;;;-149.78;100.00;50127.25;5077416;28;19913;-69
2022/06/30 00:08:39;;;;;;;;;;;;;;;-149.78;100.00;50158.53;5072412;28;19928;-68
2022/06/30 00:11:07;;;;;;;;;;;;;;;-149.78;100.00;50142.88;5084240;28;19916;-69
2022/06/30 00:13:34;;;;;;;;;;;;;;;-149.78;100.00;50154.63;5064483;28;19955;-69
2022/06/30 00:16:00;;;;;;;;;;;;;;;-149.78;100.00;50142.88;5064404;28;19921;-69
2022/06/30 00:18:25;;;;;;;;;;;;;;;-149.78;100.00;50150.72;5065077;28;19921;-69
2022/06/30 00:20:50;;;;;;;;;;;;;;;-149.78;100.00;50127.25;5066391;28;19927;-69
2022/06/30 00:23:16;;;;;;;;;;;;;;;-149.78;100.00;50135.06;5070147;28;19966;-69
2022/06/30 00:25:42;;;;;;;;;;;;;;;-149.78;100.00;50127.25;5077888;28;20312;-69
2022/06/30 00:28:07;;;;;;;;;;;;;;;-149.78;100.00;50154.63;5068594;28;19931;-69
2022/06/30 00:30:32;;;;;;;;;;;;;;;-149.78;100.00;50127.25;5064836;28;19924;-69
2022/06/30 00:32:58;;;;;;;;;;;;;;;-149.78;100.00;50119.41;5064319;28;19925;-69
2022/06/30 00:35:23;;;;;;;;;;;;;;;-149.78;100.00;50138.97;5065482;28;20387;-69
2022/06/30 00:37:49;;;;;;;;;;;;;;;-149.78;100.00;50129.19;5061437;28;19924;-69
2022/06/30 00:40:14;;;;;;;;;;;;;;;-149.78;100.00;50111.59;5073186;28;19928;-69
2022/06/30 00:42:40;;;;;;;;;;;;;;;-149.78;100.00;50137.03;5058569;28;19991;-69
2022/06/30 00:45:05;;;;;;;;;;;;;;;-149.78;100.00;50154.63;5057929;28;19927;-69
2022/06/30 00:47:31;;;;;;;;;;;;;;;-149.78;100.00;50119.41;5045174;28;19921;-69
2022/06/30 00:49:57;;;;;;;;;;;;;;;-149.78;100.00;50123.34;5064423;28;19928;-69
2022/06/30 00:52:23;;;;;;;;;;;;;;;-149.78;100.00;50144.84;5063892;28;19985;-69
2022/06/30 00:54:50;;;;;;;;;;;;;;;-149.78;100.00;50166.34;5064687;28;19916;-69
2022/06/30 00:57:17;;;;;;;;;;;;;;;-149.78;100.00;50090.09;5070243;28;19962;-69
2022/06/30 00:59:44;;;;;;;;;;;;;;;-149.78;100.00;50154.63;5063803;28;20026;-69
2022/06/30 01:02:11;;;;;;;;;;;;;;;-149.78;100.00;50123.34;5064660;28;19908;-69
2022/06/30 01:04:38;;;;;;;;;;;;;;;-149.78;100.00;50135.06;5064366;28;19912;-68
2022/06/30 01:07:04;;;;;;;;;;;;;;;-149.78;100.00;50174.19;5063999;28;19916;-69
2022/06/30 01:14:58;;;;;;;;;;;;;;;-149.78;100.00;50138.97;5064250;28;19908;-68
2022/06/30 01:17:24;;;;;;;;;;;;;;;-149.78;100.00;50142.88;5069710;28;19912;-69
2022/06/30 01:19:53;;;;;;;;;;;;;;;-149.78;100.00;50166.34;5067892;28;19993;-69
2022/06/30 01:22:19;;;;;;;;;;;;;;;-149.78;100.00;50162.44;5063166;28;19928;-69
2022/06/30 01:24:44;;;;;;;;;;;;;;;-149.78;100.00;50164.41;5072019;28;19925;-69
2022/06/30 01:27:09;;;;;;;;;;;;;;;-149.78;100.00;50160.50;5063573;28;19978;-69
2022/06/30 01:29:35;;;;;;;;;;;;;;;-149.78;100.00;50137.03;5050918;28;19943;-69
2022/06/30 01:32:01;;;;;;;;;;;;;;;-149.78;100.00;50185.91;5054998;28;19926;-69
2022/06/30 01:34:27;;;;;;;;;;;;;;;-149.78;100.00;50156.56;5068987;28;19978;-69
2022/06/30 01:36:53;;;;;;;;;;;;;;;-149.78;100.00;50170.25;5063326;28;20331;-69
2022/06/30 01:39:18;;;;;;;;;;;;;;;-149.78;100.00;50172.22;5068406;28;19932;-69
2022/06/30 01:41:44;;;;;;;;;;;;;;;-149.78;100.00;50137.03;5073496;28;20031;-69
2022/06/30 01:44:11;;;;;;;;;;;;;;;-149.78;100.00;50180.03;5063150;28;19927;-69
2022/06/30 01:46:37;;;;;;;;;;;;;;;-149.78;100.00;50142.88;5053707;28;20288;-69
2022/06/30 01:49:02;;;;;;;;;;;;;;;-149.78;100.00;50127.25;5077435;28;19928;-69
2022/06/30 01:51:27;;;;;;;;;;;;;;;-149.78;100.00;50166.34;5084497;28;19920;-69
2022/06/30 01:53:53;;;;;;;;;;;;;;;-149.78;100.00;50154.63;5085683;28;19915;-69
2022/06/30 01:56:19;;;;;;;;;;;;;;;-149.78;100.00;50178.09;5065906;28;19928;-69
2022/06/30 01:58:44;;;;;;;;;;;;;;;-149.78;100.00;50154.63;5083066;28;19944;-69
2022/06/30 02:01:09;;;;;;;;;;;;;;;-149.78;100.00;50160.50;5084964;28;20399;-69
2022/06/30 02:03:35;;;;;;;;;;;;;;;-149.78;100.00;50174.19;5087671;28;20056;-69
2022/06/30 02:06:00;;;;;;;;;;;;;;;-149.78;100.00;50146.81;5086886;28;19922;-69
2022/06/30 02:08:26;;;;;;;;;;;;;;;-149.78;100.00;50115.50;5097457;28;20017;-69
2022/06/30 02:10:51;;;;;;;;;;;;;;;-149.78;100.00;50174.19;5074902;28;19935;-69
2022/06/30 02:13:16;;;;;;;;;;;;;;;-149.78;100.00;50170.25;5084572;28;20370;-69
2022/06/30 02:15:42;;;;;;;;;;;;;;;-149.78;100.00;50146.81;5065155;28;21210;-69
2022/06/30 02:18:08;;;;;;;;;;;;;;;-149.78;100.00;50131.16;5081656;28;20336;-69
2022/06/30 02:20:34;;;;;;;;;;;;;;;-149.78;100.00;50168.31;5065475;28;19920;-69
2022/06/30 02:23:01;;;;;;;;;;;;;;;-149.78;100.00;50162.44;5083892;28;19912;-69
2022/06/30 02:25:27;;;;;;;;;;;;;;;-149.78;100.00;50150.72;5076289;28;19959;-69
2022/06/30 02:27:53;;;;;;;;;;;;;;;-149.78;100.00;50180.03;5067741;28;19931;-69
2022/06/30 02:30:18;;;;;;;;;;;;;;;-149.78;100.00;50182.00;5083542;28;19912;-69
2022/06/30 02:32:44;;;;;;;;;;;;;;;-149.78;100.00;50174.19;5081293;28;19916;-69
2022/06/30 02:35:10;;;;;;;;;;;;;;;-149.78;100.00;50138.97;5090168;28;20454;-68
2022/06/30 02:37:35;;;;;;;;;;;;;;;-149.78;100.00;50158.53;5097516;28;19924;-69
2022/06/30 02:40:02;;;;;;;;;;;;;;;-149.78;100.00;50172.22;5088812;28;19916;-69
2022/06/30 02:42:28;;;;;;;;;;;;;;;-149.78;100.00;50162.44;5098607;28;19920;-69
2022/06/30 02:44:54;;;;;;;;;;;;;;;-149.78;100.00;50178.09;5078648;28;20294;-68
2022/06/30 02:47:19;;;;;;;;;;;;;;;-149.78;100.00;50152.66;5092091;28;19919;-69
2022/06/30 02:49:45;;;;;;;;;;;;;;;-149.78;100.00;50138.97;5093376;28;19924;-69
2022/06/30 02:52:10;;;;;;;;;;;;;;;-149.78;100.00;50172.22;5088112;28;19952;-68
2022/06/30 02:54:35;;;;;;;;;;;;;;;-149.78;100.00;50166.34;5086985;28;19920;-69
2022/06/30 02:57:01;;;;;;;;;;;;;;;-149.78;100.00;50158.53;5087266;28;19939;-68
2022/06/30 02:59:26;;;;;;;;;;;;;;;-149.78;100.00;50174.19;5093862;28;19948;-69
2022/06/30 03:01:51;;;;;;;;;;;;;;;-149.78;100.00;50166.34;5086614;28;19912;-69
2022/06/30 03:04:18;;;;;;;;;;;;;;;-149.78;100.00;50170.25;5086695;28;19965;-69
2022/06/30 03:06:43;;;;;;;;;;;;;;;-149.78;100.00;50187.88;5088398;28;19924;-68
2022/06/30 03:09:09;;;;;;;;;;;;;;;-149.78;100.00;50154.63;5086976;28;20429;-69
2022/06/30 03:11:35;;;;;;;;;;;;;;;-149.78;100.00;50189.81;5084424;28;20418;-69
2022/06/30 03:14:00;;;;;;;;;;;;;;;-149.78;100.00;50174.19;5086293;28;19923;-69
2022/06/30 03:16:26;;;;;;;;;;;;;;;-149.78;100.00;50150.72;5087623;28;20321;-68
2022/06/30 03:18:52;;;;;;;;;;;;;;;-149.78;100.00;50178.09;5067986;28;19908;-68
2022/06/30 03:21:18;;;;;;;;;;;;;;;-149.78;100.00;50154.63;5084686;28;20041;-69
2022/06/30 03:23:43;;;;;;;;;;;;;;;-149.78;100.00;50160.50;5093319;28;20391;-69
2022/06/30 03:26:08;;;;;;;;;;;;;;;-149.78;100.00;50174.19;5098621;28;19928;-69
2022/06/30 03:28:34;;;;;;;;;;;;;;;-149.78;100.00;50182.00;5081346;28;19924;-69
2022/06/30 03:31:00;;;;;;;;;;;;;;;-149.78;100.00;50166.34;5085543;28;19943;-69
2022/06/30 03:33:26;;;;;;;;;;;;;;;-149.78;100.00;50209.38;5086345;28;20379;-69
2022/06/30 03:35:52;;;;;;;;;;;;;;;-149.78;100.00;50154.63;5090838;28;20027;-69
2022/06/30 03:38:17;;;;;;;;;;;;;;;-149.78;100.00;50178.09;5086136;28;19919;-69
2022/06/30 03:40:42;;;;;;;;;;;;;;;-149.78;100.00;50178.09;5094940;28;19974;-69
2022/06/30 03:43:08;;;;;;;;;;;;;;;-149.78;100.00;50180.03;5086275;28;19920;-68
2022/06/30 03:45:34;;;;;;;;;;;;;;;-149.78;100.00;50166.34;5082598;28;19931;-69
2022/06/30 03:48:00;;;;;;;;;;;;;;;-149.78;100.00;50189.81;5084896;28;19927;-68
2022/06/30 03:50:26;;;;;;;;;;;;;;;-149.78;100.00;50174.19;5085539;28;19922;-69
2022/06/30 03:52:52;;;;;;;;;;;;;;;-149.78;100.00;50170.25;5085703;28;19916;-69
2022/06/30 03:55:19;;;;;;;;;;;;;;;-149.78;100.00;50201.56;5088264;28;19946;-69
2022/06/30 03:57:45;;;;;;;;;;;;;;;-149.78;100.00;50185.91;5060905;28;19965;-69
2022/06/30 04:00:11;;;;;;;;;;;;;;;-149.78;100.00;50182.00;5085211;28;19915;-68
2022/06/30 04:02:36;;;;;;;;;;;;;;;-149.78;100.00;50201.56;5085231;28;19991;-69
2022/06/30 04:05:03;;;;;;;;;;;;;;;-149.78;100.00;50209.38;5092311;27;19958;-69
2022/06/30 04:07:29;;;;;;;;;;;;;;;-149.78;100.00;50162.44;5085495;28;19956;-69
2022/06/30 04:09:55;;;;;;;;;;;;;;;-149.78;100.00;50166.34;5085391;28;19935;-69
2022/06/30 04:12:21;;;;;;;;;;;;;;;-149.78;100.00;50160.50;5084430;28;19912;-69
2022/06/30 04:14:46;;;;;;;;;;;;;;;-149.78;100.00;50189.81;5087442;28;19929;-69
2022/06/30 04:17:12;;;;;;;;;;;;;;;-149.78;100.00;50158.53;5085970;28;19928;-69
2022/06/30 04:19:37;;;;;;;;;;;;;;;-149.78;100.00;50158.53;5084567;28;20402;-69
2022/06/30 04:22:04;;;;;;;;;;;;;;;-149.78;100.00;50146.81;5084538;28;19928;-69
2022/06/30 04:24:29;;;;;;;;;;;;;;;-149.78;100.00;50170.25;5086076;28;19943;-69
2022/06/30 04:26:55;;;;;;;;;;;;;;;-149.78;100.00;50178.09;5082682;28;19971;-69
2022/06/30 04:29:20;;;;;;;;;;;;;;;-149.78;100.00;50131.16;5067016;28;19939;-69
2022/06/30 04:34:30;;;;;;;;;;;;;;;-149.78;100.00;50178.09;5086336;28;19989;-69
2022/06/30 04:36:56;;;;;;;;;;;;;;;-149.78;100.00;50168.31;5083940;28;20391;-69
2022/06/30 04:39:22;;;;;;;;;;;;;;;-149.78;100.00;50205.47;5083830;28;20006;-69
2022/06/30 04:41:47;;;;;;;;;;;;;;;-149.78;100.00;50187.88;5079818;28;19920;-68
2022/06/30 04:44:13;;;;;;;;;;;;;;;-149.78;100.00;50172.22;5063209;28;19912;-68
2022/06/30 04:46:39;;;;;;;;;;;;;;;-149.78;100.00;50166.34;5085592;28;20361;-69
2022/06/30 04:49:05;;;;;;;;;;;;;;;-149.78;100.00;50189.81;5086150;28;19950;-69
2022/06/30 04:51:30;;;;;;;;;;;;;;;-149.78;100.00;50205.47;5087880;28;19916;-69
2022/06/30 04:53:55;;;;;;;;;;;;;;;-149.78;100.00;50205.47;5088497;28;19957;-68
2022/06/30 04:56:21;;;;;;;;;;;;;;;-149.78;100.00;50166.34;5088493;28;20382;-69
2022/06/30 04:58:47;;;;;;;;;;;;;;;-149.78;100.00;50162.44;5082823;28;19917;-69
2022/06/30 05:01:14;;;;;;;;;;;;;;;-149.78;100.00;50182.00;5081814;28;20337;-68
2022/06/30 05:03:39;;;;;;;;;;;;;;;-149.78;100.00;50182.00;5082418;28;19912;-69
2022/06/30 05:06:08;;;;;;;;;;;;;;;-149.78;100.00;50158.53;5077341;28;19924;-68
2022/06/30 05:08:33;;;;;;;;;;;;;;;-149.78;100.00;50172.22;5088607;28;19928;-69
2022/06/30 05:10:59;;;;;;;;;;;;;;;-149.78;100.00;50174.19;5083360;28;19965;-69
2022/06/30 05:13:24;;;;;;;;;;;;;;;-149.78;100.00;50152.66;5089531;28;19916;-68
2022/06/30 05:15:50;;;;;;;;;;;;;;;-149.78;100.00;50176.13;5090149;28;19920;-69
2022/06/30 05:18:15;;;;;;;;;;;;;;;-149.78;100.00;50174.19;5090863;28;19961;-69
2022/06/30 05:20:41;;;;;;;;;;;;;;;-149.78;100.00;50162.44;5085890;28;20074;-69
2022/06/30 05:23:07;;;;;;;;;;;;;;;-149.78;100.00;50146.81;5084806;28;19922;-69
2022/06/30 05:28:18;;;;;;;;;;;;;;;-149.78;100.00;50189.81;5090177;28;20001;-69
2022/06/30 05:30:43;;;;;;;;;;;;;;;-149.78;100.00;50180.03;5089747;28;19908;-69
2022/06/30 05:33:09;;;;;;;;;;;;;;;-149.78;100.00;50172.22;5100832;28;19956;-69
2022/06/30 05:35:35;;;;;;;;;;;;;;;-149.78;100.00;50154.63;5080664;28;19916;-69
2022/06/30 05:38:00;;;;;;;;;;;;;;;-149.78;100.00;50178.09;5094219;28;19988;-69
2022/06/30 05:40:26;;;;;;;;;;;;;;;-149.78;100.00;50176.13;5094909;28;19931;-69
2022/06/30 05:42:51;;;;;;;;;;;;;;;-149.78;100.00;50185.91;5082525;28;20318;-69
2022/06/30 05:45:17;;;;;;;;;;;;;;;-149.78;100.00;50154.63;5063197;28;19928;-69
2022/06/30 05:47:50;;;;;;;;;;;;;;;-149.78;100.00;50154.63;5041569;28;19931;-69
2022/06/30 05:50:16;;;;;;;;;;;;;;;-149.78;100.00;50209.38;5078094;28;19938;-68
2022/06/30 05:52:42;;;;;;;;;;;;;;;-149.78;100.00;50170.25;5078074;28;20019;-69
2022/06/30 05:55:07;;;;;;;;;;;;;;;-149.78;100.00;50146.81;5080309;28;20006;-69
2022/06/30 05:57:32;;;;;;;;;;;;;;;-149.78;100.00;50154.63;5080944;28;19912;-69
2022/06/30 05:59:58;;;;;;;;;;;;;;;-149.78;100.00;50187.88;5073187;28;20015;-69
2022/06/30 06:02:24;;;;;;;;;;;;;;;-149.78;100.00;50154.63;5085262;28;19919;-69
2022/06/30 06:04:49;;;;;;;;;;;;;;;-149.78;100.00;50180.03;5088039;28;19951;-69
2022/06/30 06:07:15;;;;;;;;;;;;;;;-149.78;100.00;50213.28;5075621;28;19928;-69
2022/06/30 06:09:40;;;;;;;;;;;;;;;-149.78;100.00;50178.09;5090786;28;20015;-68
2022/06/30 06:12:06;;;;;;;;;;;;;;;-149.78;100.00;50156.56;5090624;28;19974;-69
2022/06/30 06:14:31;;;;;;;;;;;;;;;-149.78;100.00;50117.47;5070649;28;19919;-71
2022/06/30 06:16:57;;;;;;;;;;;;;;;-149.78;100.00;50154.63;5086210;28;21569;-69
2022/06/30 06:19:22;;;;;;;;;;;;;;;-149.78;100.00;50166.34;5086275;28;20321;-68
2022/06/30 06:21:48;;;;;;;;;;;;;;;-149.78;100.00;50166.34;5089557;28;20041;-70
2022/06/30 06:24:14;;;;;;;;;;;;;;;-149.78;100.00;50156.56;5084274;28;19916;-69
2022/06/30 06:26:39;;;;;;;;;;;;;;;-149.78;100.00;50176.13;5085855;28;20014;-68
2022/06/30 06:29:06;;;;;;;;;;;;;;;-149.78;100.00;50178.09;5086931;28;19928;-69
2022/06/30 06:31:32;;;;;;;;;;;;;;;-149.78;100.00;50156.56;5087658;28;19931;-70
2022/06/30 06:33:58;;;;;;;;;;;;;;;-149.78;100.00;50158.53;5088646;28;19924;-69
2022/06/30 06:36:23;;;;;;;;;;;;;;;-149.78;100.00;50135.06;5087213;28;19926;-69
2022/06/30 06:38:49;;;;;;;;;;;;;;;-149.78;100.00;50154.63;5085186;28;19943;-68
2022/06/30 06:41:15;;;;;;;;;;;;;;;-149.78;100.00;50166.34;5081809;28;19961;-68
2022/06/30 06:43:40;;;;;;;;;;;;;;;-149.78;100.00;50160.50;5085634;28;19908;-70
2022/06/30 06:46:08;;;;;;;;;;;;;;;-149.78;100.00;50154.63;5071010;28;19924;-67
2022/06/30 06:48:33;;;;;;;;;;;;;;;-149.78;100.00;50107.69;5079002;28;19931;-69
2022/06/30 06:50:58;;;;;;;;;;;;;;;-149.78;100.00;50135.06;5082972;28;20012;-71
2022/06/30 06:53:24;;;;;;;;;;;;;;;-149.78;100.00;50140.94;5083211;28;20326;-70
2022/06/30 06:55:49;;;;;;;;;;;;;;;-149.78;100.00;50119.41;5089596;28;19923;-68
2022/06/30 06:58:15;;;;;;;;;;;;;;;-149.78;100.00;50148.75;5084515;28;20433;-69
2022/06/30 07:00:40;;;;;;;;;;;;;;;-149.78;100.00;50142.88;5078735;28;19925;-69
2022/06/30 07:03:06;;;;;;;;;;;;;;;-149.78;100.00;50162.44;5072989;28;19923;-68
2022/06/30 07:05:31;;;;;;;;;;;;;;;-149.78;100.00;50123.34;5074988;28;19919;-68
2022/06/30 07:07:58;;;;;;;;;;;;;;;-149.78;100.00;50107.69;5089427;28;19970;-67
2022/06/30 07:10:24;;;;;;;;;;;;;;;-149.78;100.00;50060.75;5079736;28;19998;-68
2022/06/30 07:12:49;;;;;;;;;;;;;;;-149.78;100.00;50078.34;5072670;28;20623;-68
2022/06/30 07:15:15;;;;;;;;;;;;;;;-149.78;100.00;50025.56;5075365;28;19909;-66
2022/06/30 07:17:40;;;;;;;;;;;;;;;-149.78;89.21;50033.38;5072647;28;20465;-67
2022/06/30 07:20:06;;;;;;;;;;;;;;;-149.78;85.37;50029.47;5074413;28;19920;-66
2022/06/30 07:22:32;;;;;;;;;;;;;;;-149.78;76.55;50027.50;5079952;28;19967;-66
2022/06/30 07:24:58;;;;;;;;;;;;;;;-149.78;77.15;49986.44;5078749;28;19924;-64
2022/06/30 07:27:23;;;;;;;;;;;;;;;-149.78;76.66;50021.63;5078365;28;20275;-67
2022/06/30 07:29:48;;;;;;;;;;;;;;;-149.78;61.67;49976.66;5077797;28;19932;-65
2022/06/30 07:32:14;;;;;;;;;;;;;;;-149.78;56.14;49970.78;5072261;28;19913;-65
2022/06/30 07:34:39;;;;;;;;;;;;;;;-149.78;56.45;49929.72;5076674;28;19928;-63
2022/06/30 07:37:05;;;;;;;;;;;;;;;-149.78;53.07;49939.50;5083199;28;19928;-64
2022/06/30 07:39:30;;;;;;;;;;;;;;;-149.78;46.52;49884.75;5083881;28;19916;-64
2022/06/30 07:41:55;;;;;;;;;;;;;;;-149.78;45.06;49892.56;5063743;28;19957;-63
2022/06/30 07:44:21;;;;;;;;;;;;;;;-149.78;50.19;49970.78;5084733;28;20351;-66
2022/06/30 07:46:47;;;;;;;;;;;;;;;-149.78;52.80;49962.97;5078987;28;20455;-65
2022/06/30 07:49:12;;;;;;;;;;;;;;;-149.78;58.71;49970.78;5084618;28;19928;-65
2022/06/30 07:51:37;;;;;;;;;;;;;;;-149.78;59.58;50002.09;5084286;28;19935;-65
2022/06/30 07:54:03;;;;;;;;;;;;;;;-149.78;60.64;49990.34;5084827;28;19912;-65
2022/06/30 07:56:30;;;;;;;;;;;;;;;-149.78;59.68;50017.72;5073704;28;19921;-65
2022/06/30 07:58:56;;;;;;;;;;;;;;;-149.78;62.82;50049.03;5082223;28;20433;-66
2022/06/30 08:01:21;;;;;;;;;;;;;;;-149.78;61.63;50011.88;5088095;28;19920;-66
2022/06/30 08:03:47;;;;;;;;;;;;;;;-149.78;61.70;50006.00;5085229;28;19974;-66
2022/06/30 08:06:13;;;;;;;;;;;;;;;-149.78;63.18;50025.56;5090228;28;19928;-66
2022/06/30 08:08:39;;;;;;;;;;;;;;;-149.78;65.29;50035.34;5085276;28;20484;-66
2022/06/30 08:11:04;;;;;;;;;;;;;;;-149.78;72.62;50064.66;5084467;28;20415;-65
2022/06/30 08:13:30;;;;;;;;;;;;;;;-149.78;72.86;50037.28;5065186;28;19913;-66
2022/06/30 08:15:55;;;;;;;;;;;;;;;-149.78;73.92;50023.59;5083531;28;20015;-65
2022/06/30 08:18:21;;;;;;;;;;;;;;;-149.78;80.14;50064.66;5084935;28;19916;-65
2022/06/30 08:20:46;;;;;;;;;;;;;;;-149.78;80.40;50017.72;5082058;28;19916;-66
2022/06/30 08:23:12;;;;;;;;;;;;;;;-149.78;68.21;50045.09;5069555;28;19959;-66
2022/06/30 08:25:37;;;;;;;;;;;;;;;-149.78;61.96;50013.81;5083977;28;20303;-65
2022/06/30 08:28:04;;;;;;;;;;;;;;;-149.78;53.87;49978.63;5092532;28;20011;-67
2022/06/30 08:30:29;;;;;;;;;;;;;;;-149.78;52.77;49935.59;5069206;28;19955;-67
2022/06/30 08:32:55;;;;;;;;;;;;;;;-149.78;50.39;49966.88;5084153;28;19923;-67
2022/06/30 08:35:20;;;;;;;;;;;;;;;-149.78;50.11;49980.56;5085123;28;19931;-68
2022/06/30 08:37:46;;;;;;;;;;;;;;;-149.78;51.97;50017.72;5075565;28;19926;-67
2022/06/30 08:42:56;;;;;;;;;;;;;;;-149.78;63.27;50041.19;5084371;28;20021;-67
2022/06/30 08:45:21;;;;;;;;;;;;;;;-149.78;65.13;50033.38;5089494;28;20021;-68
2022/06/30 08:47:47;;;;;;;;;;;;;;;-149.78;66.55;50039.25;5085262;28;19912;-68
2022/06/30 08:50:14;;;;;;;;;;;;;;;-149.78;78.39;50041.19;5085181;28;20287;-69
2022/06/30 08:52:42;;;;;;;;;;;;;;;-149.78;83.91;50080.31;5087792;28;19966;-68
2022/06/30 08:55:09;;;;;;;;;;;;;;;-149.78;85.31;50060.75;5089480;28;20007;-66
2022/06/30 08:57:35;;;;;;;;;;;;;;;-149.78;75.23;50021.63;5081859;28;19920;-66
2022/06/30 09:00:00;;;;;;;;;;;;;;;-149.78;63.26;50006.00;5083332;28;19974;-69
2022/06/30 09:02:25;;;;;;;;;;;;;;;-149.78;52.90;49998.19;5081758;28;19973;-72
2022/06/30 09:04:51;;;;;;;;;;;;;;;-149.78;44.63;49902.34;5082440;28;20321;-69
2022/06/30 09:07:17;;;;;;;;;;;;;;;-149.78;40.99;49880.84;5086928;28;20079;-69
2022/06/30 09:09:42;;;;;;;;;;;;;;;-149.78;41.91;49935.59;5090686;28;19930;-69
2022/06/30 09:12:15;;;;;;;;;;;;;;;-149.78;39.77;49947.34;5084270;28;19924;-69
2022/06/30 09:14:42;;;;;;;;;;;;;;;-149.78;41.06;49986.44;5082060;28;19928;-68
2022/06/30 09:17:10;;;;;;;;;;;;;;;-149.78;44.52;49982.53;5064187;28;19999;-69
2022/06/30 09:19:40;;;;;;;;;;;;;;;-149.78;42.65;49943.41;5063618;28;20039;-68
2022/06/30 09:22:08;;;;;;;;;;;;;;;-149.78;37.84;49900.41;5080898;28;19916;-69
2022/06/30 09:24:34;;;;;;;;;;;;;;;-149.78;34.43;49841.72;5088285;28;19965;-70
2022/06/30 09:27:16;;;;;;;;;;;;;;;-149.78;32.34;49771.34;5071630;28;19916;-67
2022/06/30 09:29:53;;;;;;;;;;;;;;;-149.78;33.65;49800.66;5086204;28;20271;-68
2022/06/30 09:32:19;;;;;;;;;;;;;;;-149.78;33.83;49841.72;5089430;28;19954;-68
2022/06/30 09:34:46;;;;;;;;;;;;;;;-149.78;33.93;49767.44;5083623;28;19968;-69
2022/06/30 09:37:37;;;;;;;;;;;;;;;-149.78;33.75;49808.50;5087569;28;19923;-67
2022/06/30 09:40:05;;;;;;;;;;;;;;;-149.78;32.55;49790.91;5081484;28;20015;-71
2022/06/30 09:42:37;;;;;;;;;;;;;;;-149.78;32.87;49810.44;5082420;28;19927;-73
2022/06/30 09:45:03;;;;;;;;;;;;;;;-149.78;34.70;49849.56;5085185;28;19952;-74
2022/06/30 09:47:29;;;;;;;;;;;;;;;-149.78;35.72;49888.66;5067318;28;19916;-76
2022/06/30 09:49:54;;;;;;;;;;;;;;;-149.78;35.30;49892.56;5081242;28;19924;-74
2022/06/30 09:52:21;;;;;;;;;;;;;;;-149.78;37.46;49929.72;5081506;28;19928;-73
2022/06/30 09:54:54;;;;;;;;;;;;;;;-149.78;40.79;49959.06;5084821;28;19923;-74
2022/06/30 09:57:20;;;;;;;;;;;;;;;-149.78;40.39;49949.28;5091042;28;20284;-75
2022/06/30 09:59:46;;;;;;;;;;;;;;;-149.78;42.17;49982.53;5084897;28;19923;-74
2022/06/30 10:02:12;;;;;;;;;;;;;;;-149.78;46.66;49978.63;5098080;28;19935;-73
2022/06/30 10:04:57;;;;;;;;;;;;;;;-149.78;48.05;49994.25;5086443;28;19929;-73
2022/06/30 10:07:23;;;;;;;;;;;;;;;-149.78;48.43;50002.09;5073828;28;20068;-75
2022/06/30 10:09:51;;;;;;;;;;;;;;;-149.78;46.67;49974.72;5082745;28;19928;-73
2022/06/30 10:12:21;;;;;;;;;;;;;;;-149.78;45.57;49974.72;5081865;28;19927;-73
2022/06/30 10:14:48;;;;;;;;;;;;;;;-149.78;45.19;50002.09;5082656;28;21417;-75
2022/06/30 10:17:19;;;;;;;;;;;;;;;-149.78;47.58;50000.13;5082001;28;19912;-73
2022/06/30 10:19:45;;;;;;;;;;;;;;;-149.78;46.78;50002.09;5082257;28;19909;-73
2022/06/30 10:22:11;;;;;;;;;;;;;;;-149.78;46.89;50033.38;5081393;28;19927;-74
2022/06/30 10:24:40;;;;;;;;;;;;;;;-149.78;48.25;50006.00;5071543;28;19943;-73
2022/06/30 10:27:13;;;;;;;;;;;;;;;-149.78;48.11;50002.09;5082294;28;20391;-74
2022/06/30 10:29:40;;;;;;;;;;;;;;;-149.78;50.10;50019.69;5087879;28;21277;-73
2022/06/30 10:32:12;;;;;;;;;;;;;;;-149.78;50.73;50045.09;5093987;28;19955;-73
2022/06/30 10:34:43;;;;;;;;;;;;;;;-149.78;48.46;50017.72;5081978;28;19924;-73
2022/06/30 10:37:26;;;;;;;;;;;;;;;-149.78;45.92;50017.72;5080341;28;20224;-73
2022/06/30 10:39:58;;;;;;;;;;;;;;;-149.78;45.67;49974.72;5064013;28;19916;-73
2022/06/30 10:42:42;;;;;;;;;;;;;;;-149.78;46.35;49994.25;5046243;28;19936;-73
2022/06/30 10:45:27;;;;;;;;;;;;;;;-149.78;44.67;49986.44;5082280;28;19975;-74
2022/06/30 10:47:55;;;;;;;;;;;;;;;-149.78;43.70;49935.59;5088775;28;19934;-69
2022/06/30 10:50:33;;;;;;;;;;;;;;;-149.78;44.52;49998.19;5082933;28;19950;-73
2022/06/30 10:52:58;;;;;;;;;;;;;;;-149.78;43.05;49974.72;5082095;28;20004;-73
2022/06/30 10:55:24;;;;;;;;;;;;;;;-149.78;41.13;49900.41;5080812;28;20532;-73
2022/06/30 10:58:00;;;;;;;;;;;;;;;-149.78;40.34;49931.69;5089816;28;19924;-74
2022/06/30 11:00:45;;;;;;;;;;;;;;;-149.78;39.66;49906.25;5086249;28;19993;-74
2022/06/30 11:03:29;;;;;;;;;;;;;;;-149.78;37.95;49880.84;5082907;28;19916;-75
2022/06/30 11:05:54;;;;;;;;;;;;;;;-149.78;37.49;49919.94;5085160;28;19920;-74
2022/06/30 11:08:48;;;;;;;;;;;;;;;-149.78;38.64;49927.78;5062605;28;19928;-74
2022/06/30 11:11:19;;;;;;;;;;;;;;;-149.78;37.52;49896.50;5084094;28;19919;-74
2022/06/30 11:13:45;;;;;;;;;;;;;;;-149.78;37.03;49970.78;5073455;28;20881;-74
2022/06/30 11:16:13;;;;;;;;;;;;;;;-149.78;37.89;49935.59;5089889;28;19920;-74
2022/06/30 11:18:38;;;;;;;;;;;;;;;-149.78;36.96;49923.88;5083648;28;19908;-74
2022/06/30 11:21:04;;;;;;;;;;;;;;;-149.78;36.70;49923.88;5092151;28;19915;-75
2022/06/30 11:23:37;;;;;;;;;;;;;;;-149.78;37.61;49918.00;5087619;28;19920;-73
2022/06/30 11:28:50;;;;;;;;;;;;;;;-149.78;40.37;49927.78;5083874;28;19962;-71
2022/06/30 11:31:25;;;;;;;;;;;;;;;-149.78;42.61;49929.72;5088082;28;19947;-73
2022/06/30 11:33:55;;;;;;;;;;;;;;;-149.78;42.73;49980.56;5088945;28;19916;-74
2022/06/30 11:36:21;;;;;;;;;;;;;;;-149.78;44.36;49998.19;5088881;28;19944;-73
2022/06/30 11:38:56;;;;;;;;;;;;;;;-149.78;48.49;49998.19;5083858;28;19955;-72
2022/06/30 11:44:06;;;;;;;;;;;;;;;-149.78;52.75;50043.16;5086980;28;19951;-73
2022/06/30 11:46:34;;;;;;;;;;;;;;;-149.78;50.58;50017.72;5088154;28;20408;-73
2022/06/30 11:49:03;;;;;;;;;;;;;;;-149.78;50.69;50033.38;5057230;28;20085;-73
2022/06/30 11:51:29;;;;;;;;;;;;;;;-149.78;53.66;49990.34;5070036;28;20315;-73
2022/06/30 11:53:54;;;;;;;;;;;;;;;-149.78;56.71;50009.91;5093131;28;20060;-72
2022/06/30 11:56:20;;;;;;;;;;;;;;;-149.78;52.01;50009.91;5066229;28;20388;-73
2022/06/30 11:58:45;;;;;;;;;;;;;;;-149.78;52.38;50007.94;5065342;28;19916;-74
2022/06/30 12:01:11;;;;;;;;;;;;;;;-149.78;51.38;50013.81;5052630;28;19977;-73
2022/06/30 12:03:37;;;;;;;;;;;;;;;-149.78;50.50;50002.09;5094652;28;19920;-73
2022/06/30 12:06:02;;;;;;;;;;;;;;;-149.78;54.83;50017.72;5087500;28;19920;-73
2022/06/30 12:08:27;;;;;;;;;;;;;;;-149.78;50.15;50002.09;5085405;28;20354;-73
2022/06/30 12:10:56;;;;;;;;;;;;;;;-149.78;49.65;49994.25;5083708;28;19912;-73
2022/06/30 12:13:24;;;;;;;;;;;;;;;-149.78;49.60;50006.00;5084323;28;19931;-73
2022/06/30 12:15:51;;;;;;;;;;;;;;;-149.78;50.34;50011.88;5066531;28;19912;-72
2022/06/30 12:18:22;;;;;;;;;;;;;;;-149.78;50.44;49994.25;5084572;28;20002;-73
2022/06/30 12:20:48;;;;;;;;;;;;;;;-149.78;50.27;49996.22;5065217;28;19923;-73
2022/06/30 12:23:13;;;;;;;;;;;;;;;-149.78;47.43;49982.53;5090361;28;19916;-73
2022/06/30 12:25:39;;;;;;;;;;;;;;;-149.78;50.83;49998.19;5081285;28;19923;-73
2022/06/30 12:28:04;;;;;;;;;;;;;;;-149.78;45.20;50017.72;5086092;28;19934;-73
2022/06/30 12:30:35;;;;;;;;;;;;;;;-149.78;49.79;49990.34;5066633;28;19959;-73
2022/06/30 12:33:02;;;;;;;;;;;;;;;-149.78;47.26;49994.25;5079404;28;19916;-71
2022/06/30 12:35:32;;;;;;;;;;;;;;;-149.78;47.91;50017.72;5080379;28;19981;-70
2022/06/30 12:38:08;;;;;;;;;;;;;;;-149.78;45.09;49974.72;5085437;28;19991;-70